Buffalo Lake, Minnesota
Current Conditions -  °F | °C
As of 3:53 AM on Saturday 25 Oct 2014 (Local Time) from KHCD Reporting Station
Scattered Clouds Scattered Clouds  
Wind Chill: 52°   Ceiling: Unl
Heat Index: 52°   Visibility: 10mi
Dew Point: 42°   Wind: 8mph
Humidity: 68%   Direction: 290°WNW
Pressure: 30.01"   Gusts: NA
Location:  44.74°N, 94.62°W
Report Text: KHCD 250853Z AUTO 29007KT 10SM SCT120 11/06 A3001 RMK AO2 T01130055
Loading
Personal Weather Stations






























Interactive Weather Map
Tropical Storm Tracking
New forecast layout! Learn more

10-Day Weather Forecast

Advertisements
Track Severe Weather on mobile